Terminal Aerodrome Forecast
Issued by NWS Knoxville/Tri Cities, TN

Home | Current Version | Previous Version | Text Only | Print | Product List | Glossary On
Versions: 1 2 3 4 5 6 7 8 9 10 11 12 13 14 15 16 17 18 19 20 21 22 23 24 25 26 27 28
681
FTUS44 KMRX 132333
TAFTRI
TAF
KTRI 132333Z 1400/1424 30009KT P6SM SKC
     FM140600 02004KT P6SM BKN100
     FM141200 05004KT P6SM OVC060
     FM141800 07005KT P6SM -SN OVC040=

USA.gov is the U.S. government's official web portal to all federal, state and local government web resources and services.